Time;durP1;ratioP1;P1;durP2;ratioP2;P2;SDS_P1;SDS_P2;PMS_P1;PMS_P2;Temp;Humidity;BMP_temperature;BMP_pressure;BME280_temperature;BME280_humidity;BME280_pressure;Samples;Min_cycle;Max_cycle;Signal;HPM_P1;HPM_P2
2021/08/05 00:00:00;;;;;;;10.85;7.33;;;;;;;17.64;79.26;98012.91;126345;1096;23540;-85
2021/08/05 00:02:26;;;;;;;8.33;7.43;;;;;;;17.63;79.45;98011.27;126458;1096;24472;-85
2021/08/05 00:04:53;;;;;;;8.83;7.90;;;;;;;17.60;79.79;98006.35;126298;1096;22962;-85
2021/08/05 00:07:21;;;;;;;9.75;7.78;;;;;;;17.57;79.86;98004.23;126275;1096;22956;-85
2021/08/05 00:09:48;;;;;;;11.80;7.38;;;;;;;17.54;80.38;97997.38;126338;1097;22838;-85
2021/08/05 00:12:15;;;;;;;9.18;7.03;;;;;;;17.54;80.26;98005.63;126311;1096;22794;-85
2021/08/05 00:14:43;;;;;;;8.23;7.43;;;;;;;17.53;80.24;97994.91;126396;1095;24135;-85
2021/08/05 00:17:12;;;;;;;8.90;8.10;;;;;;;17.57;80.56;97993.22;126469;1096;22786;-85
2021/08/05 00:19:41;;;;;;;9.73;8.70;;;;;;;17.61;80.91;97988.73;126371;1096;26194;-85
2021/08/05 00:22:10;;;;;;;10.20;7.83;;;;;;;17.61;80.96;97986.78;126317;1096;22855;-85
2021/08/05 00:24:37;;;;;;;11.38;7.53;;;;;;;17.60;80.70;97990.67;126352;1096;22880;-85
2021/08/05 00:27:18;;;;;;;8.43;7.10;;;;;;;17.63;81.02;97989.23;126340;1095;26245;-85
2021/08/05 00:29:50;;;;;;;9.53;7.05;;;;;;;17.68;81.01;97994.66;126370;1097;22825;-85
2021/08/05 00:32:18;;;;;;;9.03;8.10;;;;;;;17.68;80.96;97991.90;126328;1095;22813;-85
2021/08/05 00:34:46;;;;;;;9.05;8.13;;;;;;;17.68;80.98;97983.64;126338;1095;22789;-86
2021/08/05 00:37:13;;;;;;;9.65;8.00;;;;;;;17.67;81.15;97989.45;126229;1097;22845;-85
2021/08/05 00:39:40;;;;;;;9.93;7.83;;;;;;;17.64;80.92;97979.86;126366;1095;22812;-85
2021/08/05 00:42:06;;;;;;;11.43;8.45;;;;;;;17.63;81.21;97987.28;126325;1096;22810;-86
2021/08/05 00:44:36;;;;;;;8.75;7.40;;;;;;;17.63;81.16;97979.03;126442;1096;22786;-85
2021/08/05 00:47:18;;;;;;;8.73;7.83;;;;;;;17.64;81.26;97980.67;126342;1096;26341;-85
2021/08/05 00:49:45;;;;;;;9.78;8.25;;;;;;;17.67;81.36;97978.43;126301;1096;22793;-85
2021/08/05 00:52:23;;;;;;;8.85;7.08;;;;;;;17.67;81.16;97981.19;126282;1095;22939;-85
2021/08/05 00:54:49;;;;;;;9.33;6.93;;;;;;;17.65;81.45;97979.56;126274;1095;23419;-85
2021/08/05 00:57:16;;;;;;;10.83;6.80;;;;;;;17.68;81.34;97969.87;126298;1096;27322;-85
2021/08/05 00:59:46;;;;;;;7.90;7.00;;;;;;;17.71;81.64;97963.77;126377;1097;24459;-85
2021/08/05 01:02:20;;;;;;;9.13;7.53;;;;;;;17.78;81.32;97960.61;126284;1096;23071;-85
2021/08/05 01:04:52;;;;;;;10.20;7.43;;;;;;;17.79;81.28;97942.95;126356;1096;24614;-86
2021/08/05 01:07:40;;;;;;;8.85;7.95;;;;;;;17.79;81.22;97934.69;126298;1094;22803;-85
2021/08/05 01:10:13;;;;;;;7.50;6.65;;;;;;;17.74;81.23;97930.11;126365;1097;25973;-85
2021/08/05 01:13:17;;;;;;;10.88;7.88;;;;;;;17.71;81.74;97929.91;126268;1096;22865;-85
2021/08/05 01:15:46;;;;;;;9.10;7.90;;;;;;;17.66;81.99;97930.81;126386;1096;22972;-86
2021/08/05 01:18:19;;;;;;;9.78;7.73;;;;;;;17.61;81.87;97931.70;126442;1097;25989;-86
2021/08/05 01:20:51;;;;;;;10.10;7.95;;;;;;;17.59;82.01;97928.45;126279;1096;27437;-86
2021/08/05 01:23:47;;;;;;;8.33;7.13;;;;;;;17.58;82.40;97920.48;126315;1095;22937;-87
2021/08/05 01:26:51;;;;;;;8.75;7.60;;;;;;;17.55;82.22;97918.37;126288;1097;25865;-87
2021/08/05 01:29:18;;;;;;;7.93;7.00;;;;;;;17.54;82.88;97902.95;126242;1095;24203;-87
2021/08/05 01:31:49;;;;;;;10.65;7.08;;;;;;;17.51;82.78;97903.55;126295;1096;25552;-87
2021/08/05 01:34:19;;;;;;;9.28;7.73;;;;;;;17.45;82.98;97892.64;126381;1097;22940;-88
2021/08/05 01:36:48;;;;;;;10.93;8.28;;;;;;;17.40;82.75;97894.67;126419;1097;22783;-88
2021/08/05 01:39:18;;;;;;;9.18;7.98;;;;;;;17.38;83.15;97894.16;126337;1096;24564;-88
2021/08/05 01:41:48;;;;;;;8.07;6.93;;;;;;;17.39;83.50;97902.13;126354;1097;26260;-88
2021/08/05 01:44:16;;;;;;;9.17;7.40;;;;;;;17.39;83.35;97896.62;126373;1096;22954;-89
2021/08/05 01:46:44;;;;;;;10.30;7.63;;;;;;;17.39;83.69;97893.05;126448;1097;22807;-88
2021/08/05 01:49:14;;;;;;;9.90;7.55;;;;;;;17.39;83.13;97888.36;126266;1095;22835;-88
2021/08/05 01:51:42;;;;;;;8.18;7.30;;;;;;;17.35;83.32;97883.75;126329;1096;24544;-88
2021/08/05 01:54:13;;;;;;;8.13;7.10;;;;;;;17.35;83.66;97883.75;126303;1097;22786;-88
2021/08/05 01:56:40;;;;;;;7.88;7.08;;;;;;;17.33;83.22;97884.05;126339;1096;26926;-88
2021/08/05 01:59:08;;;;;;;8.28;6.73;;;;;;;17.32;83.63;97881.63;125835;1096;22858;-88
2021/08/05 02:01:36;;;;;;;8.10;7.30;;;;;;;17.32;83.51;97878.88;126325;1096;22786;-87
2021/08/05 02:04:31;;;;;;;10.75;7.83;;;;;;;17.31;83.53;97883.55;126394;1096;24471;-88
2021/08/05 02:07:22;;;;;;;8.18;6.98;;;;;;;17.26;83.53;97883.63;126289;1096;25858;-88
2021/08/05 02:09:59;;;;;;;8.25;6.65;;;;;;;17.22;83.89;97890.88;126302;1096;22809;-88
2021/08/05 02:12:34;;;;;;;8.55;7.68;;;;;;;17.17;83.96;97878.01;126280;1096;22845;-88
2021/08/05 02:15:07;;;;;;;8.30;7.50;;;;;;;17.15;84.05;97888.51;126412;1095;22887;-88
2021/08/05 02:17:38;;;;;;;8.30;7.48;;;;;;;17.13;84.03;97876.19;126244;1096;22786;-88
2021/08/05 02:20:08;;;;;;;8.75;7.70;;;;;;;17.11;84.28;97879.23;126345;1096;25868;-88
2021/08/05 02:22:40;;;;;;;9.03;7.00;;;;;;;17.08;84.16;97877.88;126355;1097;24175;-88
2021/08/05 02:25:11;;;;;;;9.93;6.88;;;;;;;17.07;84.69;97884.52;126318;1095;22871;-88
2021/08/05 02:27:41;;;;;;;8.33;7.33;;;;;;;17.09;84.50;97884.23;126336;1096;22877;-88
2021/08/05 02:30:11;;;;;;;8.38;7.58;;;;;;;17.10;84.46;97882.28;126503;1095;22813;-89
2021/08/05 02:32:40;;;;;;;9.78;7.48;;;;;;;17.08;84.86;97875.14;126023;1096;22819;-89
2021/08/05 02:35:10;;;;;;;10.70;7.57;;;;;;;17.07;84.47;97873.52;126015;1095;27191;-88
2021/08/05 02:37:37;;;;;;;8.20;7.40;;;;;;;17.05;84.58;97874.92;126503;1097;22835;-89
2021/08/05 02:40:07;;;;;;;7.73;6.93;;;;;;;17.04;84.63;97874.11;126143;1096;24465;-91
2021/08/05 02:42:36;;;;;;;7.70;7.00;;;;;;;17.05;84.82;97875.77;126648;1095;22793;-94
2021/08/05 02:45:04;;;;;;;9.73;7.65;;;;;;;17.05;84.60;97880.42;126946;1096;22933;-94
2021/08/05 02:47:34;;;;;;;11.40;7.63;;;;;;;17.04;85.14;97873.31;126881;1095;22927;-95
2021/08/05 02:50:04;;;;;;;9.88;7.63;;;;;;;16.99;85.03;97882.45;127144;1096;22874;-94
2021/08/05 02:52:39;;;;;;;10.13;7.95;;;;;;;16.99;84.74;97878.89;127038;1095;22970;-94
2021/08/05 02:55:10;;;;;;;8.95;7.10;;;;;;;16.96;84.93;97880.30;127160;1096;22792;-92
2021/08/05 02:57:39;;;;;;;8.83;7.73;;;;;;;16.96;85.35;97874.80;126820;1097;22810;-93
2021/08/05 03:00:10;;;;;;;11.17;8.27;;;;;;;16.98;85.08;97874.50;127532;1095;22794;-95
2021/08/05 03:02:58;;;;;;;9.68;7.75;;;;;;;16.96;85.58;97871.23;128148;1095;22769;-94
2021/08/05 03:09:57;;;;;;;9.58;7.30;;;;;;;16.87;85.62;97866.45;127350;1097;22891;-93
2021/08/05 03:12:24;;;;;;;9.68;7.63;;;;;;;16.89;85.49;97868.87;126131;1100;24193;-92
2021/08/05 03:14:51;;;;;;;9.83;7.20;;;;;;;16.86;85.79;97867.55;126758;1100;26257;-94
2021/08/05 03:17:28;;;;;;;9.63;7.75;;;;;;;16.83;85.72;97865.39;126746;1100;22785;-94
2021/08/05 03:19:56;;;;;;;8.40;7.60;;;;;;;16.84;85.63;97867.04;127777;1099;22924;-94
2021/08/05 03:22:23;;;;;;;10.50;7.65;;;;;;;16.88;86.08;97878.25;126787;1100;23106;-94
2021/08/05 03:24:56;;;;;;;8.18;7.38;;;;;;;16.86;85.44;97878.55;127954;1100;22829;-95
2021/08/05 03:38:11;;;;;;;9.40;7.25;;;;;;;16.74;85.25;97866.36;128293;1098;25784;-94
2021/08/05 03:45:05;;;;;;;8.90;7.85;;;;;;;16.59;86.16;97859.16;128301;1099;22827;-94
2021/08/05 03:47:42;;;;;;;10.28;9.20;;;;;;;16.56;85.89;97860.59;127636;1099;24461;-92
2021/08/05 03:50:10;;;;;;;11.08;8.73;;;;;;;16.53;86.55;97852.93;128235;1099;22833;-94
2021/08/05 03:52:40;;;;;;;12.20;8.55;;;;;;;16.52;86.42;97856.81;127325;1100;22888;-93
2021/08/05 03:55:13;;;;;;;10.90;8.13;;;;;;;16.50;86.55;97843.36;127610;1098;23302;-93
2021/08/05 03:57:46;;;;;;;9.37;8.20;;;;;;;16.50;86.69;97840.61;126609;1098;22823;-93
2021/08/05 04:00:19;;;;;;;10.08;8.28;;;;;;;16.48;86.74;97829.11;126775;1100;22896;-93
2021/08/05 04:02:47;;;;;;;11.50;9.83;;;;;;;16.44;86.65;97835.48;126486;1098;22811;-92
2021/08/05 04:05:14;;;;;;;12.33;9.40;;;;;;;16.37;86.69;97835.86;126980;1100;24472;-91
2021/08/05 04:07:42;;;;;;;11.07;9.30;;;;;;;16.33;87.13;97846.63;126858;1100;24509;-91
2021/08/05 04:10:11;;;;;;;10.13;8.73;;;;;;;16.30;87.35;97832.67;126776;1100;22763;-91
2021/08/05 04:12:38;;;;;;;9.75;7.95;;;;;;;16.30;87.62;97827.98;126514;1100;24112;-93
2021/08/05 04:15:07;;;;;;;10.08;8.85;;;;;;;16.27;87.60;97830.52;127122;1098;27403;-93
2021/08/05 04:17:39;;;;;;;9.98;8.53;;;;;;;16.28;87.67;97838.46;127014;1100;22795;-91
2021/08/05 04:20:09;;;;;;;10.13;9.00;;;;;;;16.32;87.70;97835.94;127041;1100;24040;-93
2021/08/05 04:22:37;;;;;;;9.30;8.05;;;;;;;16.36;87.73;97834.24;126688;1100;23052;-93
2021/08/05 04:25:09;;;;;;;10.33;8.70;;;;;;;16.41;88.15;97828.64;126921;1100;22800;-94
2021/08/05 04:27:39;;;;;;;12.53;10.25;;;;;;;16.41;87.73;97825.89;126466;1100;22883;-93
2021/08/05 04:30:09;;;;;;;10.08;8.93;;;;;;;16.42;87.74;97823.98;126975;1098;22900;-92
2021/08/05 04:32:37;;;;;;;11.80;9.65;;;;;;;16.38;87.87;97812.77;126648;1099;23032;-93
2021/08/05 04:35:07;;;;;;;9.80;8.73;;;;;;;16.40;87.70;97810.53;126917;1100;24201;-93
2021/08/05 04:37:35;;;;;;;11.60;9.05;;;;;;;16.38;88.42;97804.53;126587;1100;22751;-92
2021/08/05 04:40:04;;;;;;;11.23;9.63;;;;;;;16.36;88.02;97806.77;126904;1100;23283;-93
2021/08/05 04:42:31;;;;;;;;;;;;;;;16.39;88.27;97808.89;126358;1100;27272;-93
2021/08/05 04:45:00;;;;;;;11.95;9.28;;;;;;;16.39;88.39;97797.09;126711;1100;21471;-93
2021/08/05 04:47:27;;;;;;;9.00;8.10;;;;;;;16.40;88.38;97801.48;127003;1100;22781;-93
2021/08/05 04:49:55;;;;;;;9.38;8.45;;;;;;;16.43;88.38;97800.86;127018;1098;22797;-94
2021/08/05 04:52:23;;;;;;;9.58;8.58;;;;;;;16.45;88.42;97801.38;126809;1098;22775;-93
2021/08/05 04:54:52;;;;;;;13.08;9.63;;;;;;;16.47;88.23;97777.98;127106;1100;22877;-94
2021/08/05 04:57:19;;;;;;;8.65;7.73;;;;;;;16.52;88.66;97779.84;127147;1099;22786;-94
2021/08/05 04:59:47;;;;;;;8.57;7.63;;;;;;;16.53;88.51;97773.22;127756;1100;24078;-94
2021/08/05 05:02:14;;;;;;;7.20;6.07;;;;;;;16.56;88.46;97778.13;127188;1099;23037;-94
2021/08/05 05:04:42;;;;;;;7.58;6.85;;;;;;;16.55;87.79;97767.42;127125;1100;22766;-92
2021/08/05 05:07:11;;;;;;;7.38;6.68;;;;;;;16.58;88.21;97767.64;126917;1099;26286;-93
2021/08/05 05:09:41;;;;;;;7.33;6.20;;;;;;;16.57;88.01;97773.43;127500;1098;22859;-94
2021/08/05 05:12:08;;;;;;;6.80;6.10;;;;;;;16.56;87.77;97769.06;127356;1099;23245;-93
2021/08/05 05:14:35;;;;;;;6.13;5.53;;;;;;;16.56;88.43;97766.31;127222;1100;22869;-93
2021/08/05 05:17:05;;;;;;;6.40;5.55;;;;;;;16.57;88.26;97763.24;126933;1099;22754;-93
2021/08/05 05:19:32;;;;;;;5.40;4.87;;;;;;;16.61;88.35;97766.20;127036;1100;25780;-93
2021/08/05 05:21:59;;;;;;;5.83;5.20;;;;;;;16.65;88.15;97764.50;127240;1100;22794;-93
2021/08/05 05:24:26;;;;;;;8.35;5.45;;;;;;;16.70;88.32;97758.92;127246;1099;24335;-93
2021/08/05 05:26:54;;;;;;;5.58;5.05;;;;;;;16.75;88.05;97760.74;126958;1099;22808;-92
2021/08/05 05:29:22;;;;;;;6.25;5.65;;;;;;;16.75;87.80;97764.33;127690;1099;22768;-93
2021/08/05 05:31:55;;;;;;;7.08;6.48;;;;;;;16.77;88.11;97762.09;127783;1100;22784;-93
2021/08/05 05:34:25;;;;;;;6.35;5.70;;;;;;;16.79;88.39;97750.79;127587;1100;26300;-93
2021/08/05 05:37:07;;;;;;;6.48;5.88;;;;;;;16.85;88.10;97744.09;126938;1098;22810;-93
2021/08/05 05:39:37;;;;;;;7.35;5.85;;;;;;;16.92;88.23;97741.76;127878;1099;26289;-93
2021/08/05 05:42:04;;;;;;;6.85;5.55;;;;;;;16.95;88.02;97751.35;127743;1100;23354;-94
2021/08/05 05:44:42;;;;;;;6.10;5.45;;;;;;;16.99;87.90;97763.37;127620;1099;22817;-96
2021/08/05 05:47:29;;;;;;;6.20;5.50;;;;;;;17.04;87.39;97777.03;127776;1100;22870;-94
2021/08/05 05:50:29;;;;;;;6.93;5.98;;;;;;;17.04;87.34;97763.27;127282;1100;22826;-95
2021/08/05 05:53:07;;;;;;;6.78;6.08;;;;;;;17.02;86.89;97769.08;128210;1100;22828;-91
2021/08/05 05:56:20;;;;;;;7.73;6.15;;;;;;;17.01;87.46;97772.13;127986;1100;22771;-93
2021/08/05 05:59:00;;;;;;;6.75;6.05;;;;;;;17.01;87.54;97755.63;127777;1100;23483;-94
2021/08/05 06:04:56;;;;;;;6.58;5.98;;;;;;;17.06;87.48;97741.77;127758;1100;22796;-92
2021/08/05 06:07:25;;;;;;;5.98;5.48;;;;;;;17.08;87.66;97734.83;127995;1096;22759;-94
2021/08/05 06:09:52;;;;;;;7.50;6.70;;;;;;;17.12;87.76;97734.23;127139;1100;22824;-92
2021/08/05 06:12:20;;;;;;;6.60;6.05;;;;;;;17.14;87.51;97730.06;127222;1100;24560;-94
2021/08/05 06:14:52;;;;;;;6.88;5.88;;;;;;;17.17;87.35;97723.13;127537;1096;23515;-93
2021/08/05 06:17:23;;;;;;;6.75;5.40;;;;;;;17.21;87.59;97711.20;127679;1096;22838;-95
2021/08/05 06:19:51;;;;;;;6.00;5.40;;;;;;;17.22;87.25;97709.27;127520;1097;22775;-95
2021/08/05 06:22:24;;;;;;;6.78;5.40;;;;;;;17.20;87.47;97698.56;127622;1096;22898;-94
2021/08/05 06:24:59;;;;;;;6.45;5.85;;;;;;;17.24;87.53;97698.76;127998;1096;22812;-94
2021/08/05 06:27:54;;;;;;;8.48;5.60;;;;;;;17.31;87.40;97690.09;128512;1097;23340;-93
2021/08/05 06:30:25;;;;;;;6.55;5.95;;;;;;;17.33;87.36;97693.34;128160;1096;22750;-93
2021/08/05 06:32:53;;;;;;;5.40;4.90;;;;;;;17.34;87.08;97683.98;127593;1096;22845;-93
2021/08/05 06:35:21;;;;;;;5.83;5.33;;;;;;;17.35;86.92;97680.92;127482;1096;27112;-93
2021/08/05 06:37:48;;;;;;;5.00;4.50;;;;;;;17.32;86.73;97665.02;127407;1096;22797;-93
2021/08/05 06:40:19;;;;;;;5.18;4.65;;;;;;;17.33;87.01;97669.39;126894;1096;22991;-94
2021/08/05 06:42:46;;;;;;;5.00;4.50;;;;;;;17.38;87.12;97674.78;126738;1099;25790;-93
2021/08/05 06:45:14;;;;;;;4.30;3.90;;;;;;;17.36;86.46;97667.97;126885;1097;22824;-94
2021/08/05 06:47:49;;;;;;;5.75;5.25;;;;;;;17.26;86.09;97671.74;126718;1100;22804;-93
2021/08/05 06:50:18;;;;;;;6.50;5.00;;;;;;;17.21;86.77;97677.35;126653;1100;27150;-93
2021/08/05 06:52:47;;;;;;;5.38;4.88;;;;;;;17.15;86.88;97692.35;126560;1100;27328;-93
2021/08/05 06:55:18;;;;;;;5.78;5.28;;;;;;;17.08;86.61;97703.77;126844;1099;22867;-93
2021/08/05 06:57:45;;;;;;;6.28;4.78;;;;;;;17.01;87.08;97726.17;126283;1096;24588;-93
2021/08/05 07:00:13;;;;;;;4.70;4.30;;;;;;;16.95;86.91;97743.91;126387;1096;22813;-92
2021/08/05 07:02:40;;;;;;;7.83;5.13;;;;;;;16.86;87.28;97754.80;126261;1096;22927;-93
2021/08/05 07:05:12;;;;;;;7.58;5.80;;;;;;;16.83;87.07;97758.14;125901;1097;22844;-92
2021/08/05 07:07:39;;;;;;;7.28;5.53;;;;;;;16.82;87.59;97763.91;126001;1096;22840;-92
2021/08/05 07:10:10;;;;;;;7.30;6.15;;;;;;;16.78;87.73;97769.20;125990;1097;22827;-92
2021/08/05 07:12:37;;;;;;;7.55;6.25;;;;;;;16.75;87.54;97769.83;125895;1097;22982;-91
2021/08/05 07:15:05;;;;;;;6.58;5.98;;;;;;;16.73;87.61;97771.23;125753;1100;24615;-91
2021/08/05 07:17:32;;;;;;;5.73;5.18;;;;;;;16.75;87.86;97772.58;125604;1099;22823;-92
2021/08/05 07:19:59;;;;;;;6.75;6.15;;;;;;;16.76;88.08;97770.64;125623;1097;22793;-94
2021/08/05 07:22:51;;;;;;;8.85;6.70;;;;;;;16.80;87.91;97752.41;128008;1100;22799;-94
2021/08/05 07:25:53;;;;;;;7.70;6.93;;;;;;;16.85;87.91;97749.59;127820;1100;23720;-94
2021/08/05 07:28:20;;;;;;;7.37;6.63;;;;;;;16.86;87.74;97748.48;127691;1100;22845;-94
2021/08/05 07:31:22;;;;;;;8.33;7.10;;;;;;;16.92;87.76;97743.70;127362;1100;22838;-94
2021/08/05 07:34:09;;;;;;;9.08;7.28;;;;;;;16.97;87.26;97732.60;127448;1100;22774;-95
2021/08/05 07:36:51;;;;;;;8.30;7.50;;;;;;;16.95;87.14;97727.41;127759;1100;22794;-93
2021/08/05 07:39:57;;;;;;;11.38;8.53;;;;;;;16.95;87.61;97718.34;127520;1099;22904;-94
2021/08/05 07:42:39;;;;;;;11.40;8.80;;;;;;;16.95;87.31;97708.15;127466;1100;22916;-92
2021/08/05 07:45:18;;;;;;;9.33;8.13;;;;;;;16.99;87.33;97709.16;127829;1099;22792;-95
2021/08/05 07:47:48;;;;;;;8.43;7.53;;;;;;;17.07;87.95;97707.65;127435;1100;22863;-94
2021/08/05 07:50:17;;;;;;;6.98;6.38;;;;;;;17.15;87.50;97704.16;127170;1098;22808;-93
2021/08/05 07:52:46;;;;;;;7.13;6.20;;;;;;;17.19;87.53;97696.95;126861;1100;22831;-95
2021/08/05 07:55:14;;;;;;;5.83;5.30;;;;;;;17.26;87.16;97702.02;127057;1099;22816;-92
2021/08/05 07:57:41;;;;;;;6.13;5.50;;;;;;;17.29;86.69;97695.09;126674;1097;22872;-94
2021/08/05 08:00:13;;;;;;;5.50;5.00;;;;;;;17.29;87.22;97704.16;126827;1099;22882;-95
2021/08/05 08:06:23;;;;;;;5.33;4.83;;;;;;;17.34;87.10;97706.00;128851;1100;22746;-95
2021/08/05 08:09:36;;;;;;;5.50;5.00;;;;;;;17.35;86.64;97704.86;128943;1100;22981;-93
2021/08/05 08:13:22;;;;;;;6.18;5.00;;;;;;;17.31;86.32;97692.84;127819;1098;22979;-93
2021/08/05 08:16:10;;;;;;;6.48;5.20;;;;;;;17.26;87.14;97680.84;126727;1100;22800;-93
2021/08/05 08:18:38;;;;;;;6.47;4.60;;;;;;;17.30;86.58;97677.45;127050;1099;23300;-93
2021/08/05 08:25:12;;;;;;;4.40;4.00;;;;;;;17.38;86.74;97673.97;128727;1100;22783;-94
2021/08/05 08:28:26;;;;;;;4.23;3.83;;;;;;;17.40;86.17;97669.78;128448;1096;23456;-95
2021/08/05 08:31:48;;;;;;;;;;;;;;;;;;;;;
2021/08/05 08:37:56;;;;;;;3.40;2.63;;;;;;;17.42;86.60;97694.25;128903;1100;22801;-94
2021/08/05 08:41:34;;;;;;;4.05;3.60;;;;;;;17.47;86.69;97685.88;128616;1096;22966;-94
2021/08/05 08:44:58;;;;;;;4.73;4.33;;;;;;;17.55;86.43;97687.10;128729;1096;22777;-95
2021/08/05 08:51:22;;;;;;;5.90;4.40;;;;;;;17.55;86.14;97685.16;128987;1096;22831;-94
2021/08/05 08:54:31;;;;;;;5.63;4.60;;;;;;;17.57;85.93;97685.66;129044;1096;22934;-96
2021/08/05 09:00:43;;;;;;;4.43;3.65;;;;;;;17.72;86.19;97689.18;129123;1100;22690;-96
2021/08/05 09:07:06;;;;;;;;;;;;;;;;;;;;;
2021/08/05 09:13:08;;;;;;;5.95;5.18;;;;;;;17.81;85.06;97674.38;128994;1100;22909;-96
2021/08/05 09:26:23;;;;;;;5.88;5.35;;;;;;;17.83;85.66;97660.30;128672;1100;22768;-93
2021/08/05 09:33:59;;;;;;;6.20;5.30;;;;;;;17.78;85.50;97666.72;128112;1100;23466;-92
2021/08/05 09:57:51;;;;;;;5.90;5.30;;;;;;;17.80;85.99;97639.68;128432;1096;22802;-94
2021/08/05 10:07:42;;;;;;;;;;;;;;;;;;;;;
2021/08/05 10:14:37;;;;;;;5.33;4.83;;;;;;;17.86;85.93;97601.03;128409;1100;22822;-95
2021/08/05 10:28:17;;;;;;;7.03;5.55;;;;;;;18.06;86.14;97577.64;128120;1100;22813;-95
2021/08/05 10:31:29;;;;;;;5.65;5.05;;;;;;;18.09;86.19;97563.25;128950;1100;22757;-95
2021/08/05 10:37:42;;;;;;;5.97;4.77;;;;;;;18.04;85.56;97566.94;128128;1100;23113;-95
2021/08/05 10:41:06;;;;;;;;;;;;;;;;;;;;;
2021/08/05 11:03:52;;;;;;;7.18;6.48;;;;;;;17.78;85.90;97540.04;128371;1100;22847;-96
2021/08/05 11:11:33;;;;;;;6.03;5.43;;;;;;;17.68;86.10;97533.98;129081;1100;24069;-95
2021/08/05 11:18:01;;;;;;;;;;;;;;;;;;;;;
2021/08/05 11:23:52;;;;;;;8.08;7.30;;;;;;;17.77;86.54;97499.84;128784;1097;22802;-95
2021/08/05 11:26:29;;;;;;;9.40;8.38;;;;;;;17.76;86.68;97502.91;127974;1098;25730;-95
2021/08/05 11:29:30;;;;;;;8.08;7.28;;;;;;;17.78;86.87;97495.98;127813;1099;24128;-95
2021/08/05 11:32:28;;;;;;;9.20;7.33;;;;;;;17.81;86.80;97500.02;127951;1100;22831;-94
2021/08/05 11:35:20;;;;;;;9.63;7.60;;;;;;;17.89;86.77;97496.55;128287;1100;24132;-94
2021/08/05 11:38:10;;;;;;;11.88;8.50;;;;;;;17.97;86.93;97501.30;127940;1099;22821;-94
2021/08/05 11:40:43;;;;;;;11.43;9.13;;;;;;;18.03;86.65;97497.25;127824;1098;22928;-94
2021/08/05 12:08:28;;;;;;;14.05;10.93;;;;;;;17.79;86.51;97449.97;127307;1099;23490;-94
2021/08/05 12:11:39;;;;;;;14.98;11.23;;;;;;;17.77;86.94;97442.02;127908;1100;22846;-95
2021/08/05 12:48:34;;;;;;;16.88;13.53;;;;;;;17.62;87.67;97412.16;127813;1097;22804;-93
2021/08/05 12:51:32;;;;;;;18.50;13.20;;;;;;;17.62;87.53;97399.20;127519;1100;22867;-93
2021/08/05 12:54:44;;;;;;;;;;;;;;;;;;;;;
2021/08/05 13:01:05;;;;;;;15.93;10.15;;;;;;;17.57;87.87;97382.02;129114;1099;23671;-94
2021/08/05 13:08:30;;;;;;;17.08;11.40;;;;;;;17.59;88.25;97404.53;129475;1100;22721;-96
2021/08/05 13:22:07;;;;;;;;;;;;;;;;;;;;;
2021/08/05 13:31:41;;;;;;;7.80;5.75;;;;;;;17.63;88.31;97369.72;129433;1100;24214;-96
2021/08/05 13:58:57;;;;;;;;;;;;;;;;;;;;;
2021/08/05 14:23:23;;;;;;;5.33;4.13;;;;;;;17.52;88.24;97272.84;128103;1100;22666;-94
2021/08/05 14:33:18;;;;;;;3.70;3.28;;;;;;;17.59;88.20;97239.35;127103;1100;22979;-93
2021/08/05 14:36:12;;;;;;;3.40;3.10;;;;;;;17.57;87.94;97228.66;127164;1100;22838;-93
2021/08/05 14:39:24;;;;;;;4.23;3.78;;;;;;;17.51;88.23;97232.70;127332;1100;22790;-94
2021/08/05 15:19:36;;;;;;;1.45;1.35;;;;;;;17.14;88.89;97160.59;128970;1097;22601;31
2021/08/05 15:30:04;;;;;;;;;;;;;;;;;;;;;
2021/08/05 15:46:15;;;;;;;2.40;2.20;;;;;;;16.85;90.40;97130.88;127888;1100;22946;-95
2021/08/05 15:52:38;;;;;;;1.90;1.70;;;;;;;16.78;90.41;97108.52;128324;1100;22811;-94
2021/08/05 15:55:56;;;;;;;1.90;1.70;;;;;;;16.75;90.69;97093.48;127398;1100;22791;-94
2021/08/05 15:59:41;;;;;;;3.15;1.95;;;;;;;16.74;90.90;97089.09;127340;1100;22822;-94
2021/08/05 16:05:59;;;;;;;1.70;1.60;;;;;;;16.72;91.05;97077.61;128295;1100;22884;-95
2021/08/05 16:20:07;;;;;;;2.73;1.90;;;;;;;16.72;90.97;97063.88;128792;1100;23259;-94
2021/08/05 16:37:18;;;;;;;1.60;1.50;;;;;;;16.68;91.30;97058.20;127245;1100;22920;-93
2021/08/05 16:39:46;;;;;;;2.50;1.53;;;;;;;16.69;91.43;97053.50;127044;1100;22914;-90
2021/08/05 16:42:13;;;;;;;2.53;1.60;;;;;;;16.70;91.07;97041.39;126289;1100;22986;-92
2021/08/05 16:44:41;;;;;;;2.00;1.40;;;;;;;16.70;91.14;97044.94;125490;1100;22854;-92
2021/08/05 16:47:12;;;;;;;1.80;1.68;;;;;;;16.69;91.06;97045.25;125556;1099;22818;-93
2021/08/05 16:49:42;;;;;;;1.90;1.40;;;;;;;16.66;91.50;97032.14;125600;1100;22906;-93
2021/08/05 16:52:10;;;;;;;1.83;1.73;;;;;;;16.65;91.74;97034.09;125512;1100;22915;-91
2021/08/05 16:54:37;;;;;;;3.48;1.38;;;;;;;16.65;91.34;97022.30;125289;1100;22887;-90
2021/08/05 16:57:07;;;;;;;3.58;1.90;;;;;;;16.63;91.16;97027.31;125253;1098;22818;-91
2021/08/05 16:59:38;;;;;;;4.33;1.75;;;;;;;16.58;91.18;97027.45;125461;1100;22842;-93
2021/08/05 17:02:07;;;;;;;2.60;1.60;;;;;;;16.55;91.67;97017.09;125342;1100;22889;-91
2021/08/05 17:04:42;;;;;;;1.63;1.45;;;;;;;16.53;91.84;97022.91;125348;1100;22887;-90
2021/08/05 17:08:05;;;;;;;1.30;1.20;;;;;;;16.51;91.67;97009.48;125353;1100;27606;-91
2021/08/05 17:10:33;;;;;;;1.90;1.50;;;;;;;16.48;91.97;97004.64;125324;1100;22796;-90
2021/08/05 17:13:15;;;;;;;3.03;1.30;;;;;;;16.45;91.64;97005.27;125441;1100;22879;-93
2021/08/05 17:15:42;;;;;;;1.33;1.23;;;;;;;16.44;92.06;96995.40;125723;1100;22896;-94
2021/08/05 17:18:09;;;;;;;1.63;1.10;;;;;;;16.43;92.03;96987.47;126191;1100;22944;-93
2021/08/05 17:20:37;;;;;;;1.30;1.20;;;;;;;16.42;91.77;96989.42;125550;1100;22872;-92
2021/08/05 17:23:04;;;;;;;1.43;1.33;;;;;;;16.38;91.86;96985.70;125703;1102;26322;-92
2021/08/05 17:25:31;;;;;;;1.45;1.15;;;;;;;16.34;91.88;96990.19;125619;1103;26267;-92
2021/08/05 17:27:59;;;;;;;1.63;1.53;;;;;;;16.31;92.30;96988.11;125431;1103;22829;-90
2021/08/05 17:30:31;;;;;;;1.33;1.20;;;;;;;16.27;92.36;96976.11;125646;1100;26259;-91
2021/08/05 17:33:02;;;;;;;1.40;1.30;;;;;;;16.23;92.20;96970.45;125531;1103;22841;-92
2021/08/05 17:35:36;;;;;;;1.75;1.33;;;;;;;16.17;92.28;96971.73;125464;1100;24213;-92
2021/08/05 17:38:15;;;;;;;1.55;1.45;;;;;;;16.14;92.39;96964.13;126029;1103;22937;-93
2021/08/05 17:40:59;;;;;;;1.28;1.18;;;;;;;16.13;92.51;96973.52;126394;1100;22823;-93
2021/08/05 17:43:31;;;;;;;1.53;1.20;;;;;;;16.12;92.85;96964.44;126210;1100;24342;-91
2021/08/05 17:45:58;;;;;;;1.20;1.10;;;;;;;16.12;92.53;96974.63;125526;1103;22810;-91
2021/08/05 17:48:26;;;;;;;2.25;1.15;;;;;;;16.09;92.80;96969.76;126048;1103;22797;-92
2021/08/05 17:54:06;;;;;;;2.48;1.15;;;;;;;16.08;92.79;96966.21;127345;1100;22839;-95
2021/08/05 17:59:15;;;;;;;1.25;1.15;;;;;;;16.09;92.60;96967.02;126821;1100;22810;-93
2021/08/05 18:01:53;;;;;;;2.45;1.05;;;;;;;16.10;92.23;96961.20;126529;1100;22885;-93
2021/08/05 18:04:20;;;;;;;1.83;1.20;;;;;;;16.12;92.65;96955.41;126020;1100;22828;-91
2021/08/05 18:07:11;;;;;;;1.98;1.20;;;;;;;16.13;92.16;96951.54;126234;1100;22815;-93
2021/08/05 18:15:57;;;;;;;1.15;1.05;;;;;;;16.09;92.28;96945.84;126482;1100;22793;-90
2021/08/05 18:19:04;;;;;;;0.83;0.83;;;;;;;16.05;91.88;96928.39;126591;1100;22812;-92
2021/08/05 18:22:01;;;;;;;0.78;0.78;;;;;;;16.02;92.23;96937.27;126732;1100;24424;-93
2021/08/05 18:24:44;;;;;;;1.90;0.80;;;;;;;15.98;92.57;96925.30;126812;1100;22962;-93
2021/08/05 18:27:14;;;;;;;1.40;0.83;;;;;;;15.98;92.30;96919.81;126488;1100;22839;-92
2021/08/05 18:29:45;;;;;;;1.70;0.60;;;;;;;15.96;92.17;96930.31;126025;1099;22955;-92
2021/08/05 18:32:13;;;;;;;0.85;0.80;;;;;;;15.96;92.64;96926.77;125678;1100;22796;-92
2021/08/05 18:34:43;;;;;;;1.77;0.73;;;;;;;15.93;92.31;96922.70;125710;1100;22793;-91
2021/08/05 18:37:10;;;;;;;1.45;0.53;;;;;;;15.90;92.35;96926.91;125888;1100;22606;-92
2021/08/05 18:44:05;;;;;;;2.13;0.70;;;;;;;15.88;92.58;96933.82;126099;1100;22803;-91
2021/08/05 18:55:06;;;;;;;1.45;0.80;;;;;;;15.77;92.59;96929.75;125936;1100;24567;-93
2021/08/05 18:57:34;;;;;;;1.10;0.70;;;;;;;15.75;92.77;96930.87;126004;1100;22839;-89